Time;durP1;ratioP1;P1;durP2;ratioP2;P2;SDS_P1;SDS_P2;PMS_P1;PMS_P2;Temp;Humidity;BMP_temperature;BMP_pressure;BME280_temperature;BME280_humidity;BME280_pressure;Samples;Min_cycle;Max_cycle;Signal;HPM_P1;HPM_P2
2022/10/01 00:00:14;;;;;;;6.65;5.03;;;11.30;99.90;;;;;;5044288;28;20212;-85
2022/10/01 00:02:41;;;;;;;6.40;5.25;;;11.30;99.90;;;;;;5043661;28;20275;-85
2022/10/01 00:05:13;;;;;;;7.03;5.50;;;11.30;99.90;;;;;;5044204;28;20238;-85
2022/10/01 00:07:41;;;;;;;6.95;5.60;;;11.30;99.90;;;;;;5044604;28;20556;-85
2022/10/01 00:10:09;;;;;;;6.65;5.40;;;11.20;99.90;;;;;;5043972;28;20214;-85
2022/10/01 00:12:37;;;;;;;6.38;5.55;;;11.20;99.90;;;;;;5044784;28;20198;-85
2022/10/01 00:15:08;;;;;;;7.63;6.10;;;11.20;99.90;;;;;;5043380;28;20226;-85
2022/10/01 00:17:36;;;;;;;7.47;6.15;;;11.30;99.90;;;;;;5043275;28;20190;-85
2022/10/01 00:20:03;;;;;;;7.38;6.25;;;11.30;99.90;;;;;;5045055;28;20246;-85
2022/10/01 00:22:31;;;;;;;6.50;5.90;;;11.20;99.90;;;;;;5044637;28;20237;-85
2022/10/01 00:25:01;;;;;;;7.10;6.25;;;11.20;99.90;;;;;;5039378;28;20199;-85
2022/10/01 00:27:37;;;;;;;6.68;5.57;;;11.20;99.90;;;;;;5043927;28;20230;-86
2022/10/01 00:30:07;;;;;;;6.95;6.25;;;11.20;99.90;;;;;;5041410;28;20216;-86
2022/10/01 00:32:39;;;;;;;8.13;5.70;;;11.20;99.90;;;;;;5040146;28;20277;-85
2022/10/01 00:35:08;;;;;;;8.05;5.60;;;11.20;99.90;;;;;;5037210;28;20226;-85
2022/10/01 00:37:36;;;;;;;8.40;6.57;;;11.30;99.90;;;;;;5030660;28;20199;-85
2022/10/01 00:40:08;;;;;;;7.43;6.63;;;11.30;99.90;;;;;;5043850;28;20256;-85
2022/10/01 00:42:36;;;;;;;8.05;6.25;;;11.20;99.90;;;;;;5044436;28;20203;-85
2022/10/01 00:45:11;;;;;;;7.20;6.40;;;11.20;99.90;;;;;;5043348;28;20273;-85
2022/10/01 00:47:50;;;;;;;7.32;6.63;;;11.20;99.90;;;;;;5043049;28;20218;-85
2022/10/01 00:50:25;;;;;;;7.75;6.97;;;11.30;99.90;;;;;;5041746;28;20218;-85
2022/10/01 00:52:58;;;;;;;8.43;7.57;;;11.40;99.90;;;;;;5042461;28;20198;-85
2022/10/01 00:55:28;;;;;;;7.97;7.18;;;11.50;99.90;;;;;;5043192;28;20214;-85
2022/10/01 00:57:56;;;;;;;7.32;6.57;;;11.40;99.90;;;;;;5042472;28;20221;-85
2022/10/01 01:00:24;;;;;;;8.75;6.90;;;11.30;99.90;;;;;;5038930;28;20288;-85
2022/10/01 01:03:01;;;;;;;8.00;7.13;;;11.30;99.90;;;;;;5042798;28;20194;-85
2022/10/01 01:05:28;;;;;;;9.00;7.88;;;11.20;99.90;;;;;;5042068;28;20281;-85
2022/10/01 01:07:55;;;;;;;8.90;8.00;;;11.20;99.90;;;;;;5034324;28;20261;-85
2022/10/01 01:10:37;;;;;;;15.23;9.23;;;11.20;99.90;;;;;;5042178;28;20278;-85
2022/10/01 01:13:16;;;;;;;10.10;9.02;;;11.20;99.90;;;;;;5040804;28;20198;-85
2022/10/01 01:15:51;;;;;;;11.52;9.75;;;11.10;99.90;;;;;;5028280;28;20221;-85
2022/10/01 01:18:31;;;;;;;10.48;9.35;;;11.30;99.90;;;;;;5040162;28;20201;-85
2022/10/01 01:21:21;;;;;;;10.23;8.93;;;11.20;99.90;;;;;;5037345;28;20273;-85
2022/10/01 01:24:10;;;;;;;9.98;8.98;;;11.20;99.90;;;;;;5038781;28;20592;-86
2022/10/01 01:27:18;;;;;;;9.05;8.13;;;11.30;99.90;;;;;;5029363;28;20559;-85
2022/10/01 01:29:56;;;;;;;12.50;9.10;;;11.30;99.90;;;;;;4973655;28;20215;-85
2022/10/01 01:32:37;;;;;;;10.13;9.13;;;11.40;99.90;;;;;;4971102;28;20311;-85
2022/10/01 01:35:11;;;;;;;9.88;8.55;;;11.20;99.90;;;;;;4967656;28;20664;-86
2022/10/01 01:37:51;;;;;;;9.88;8.82;;;11.20;99.90;;;;;;4973124;28;20215;-85
2022/10/01 01:40:20;;;;;;;10.23;9.02;;;11.10;99.90;;;;;;4963863;28;20204;-85
2022/10/01 01:42:50;;;;;;;11.65;9.20;;;11.10;99.90;;;;;;4975568;28;20207;-85
2022/10/01 01:45:22;;;;;;;9.77;8.77;;;11.00;99.90;;;;;;4976509;28;20603;-85
2022/10/01 01:47:54;;;;;;;11.25;8.85;;;10.90;99.90;;;;;;4981550;28;20209;-85
2022/10/01 01:50:24;;;;;;;9.80;8.80;;;10.80;99.90;;;;;;4977797;28;20239;-86
2022/10/01 01:52:55;;;;;;;11.60;9.02;;;10.60;99.90;;;;;;4975473;28;20238;-86
2022/10/01 01:55:24;;;;;;;9.57;8.57;;;10.50;99.90;;;;;;4973984;28;21507;-86
2022/10/01 01:57:52;;;;;;;10.05;9.00;;;10.40;99.90;;;;;;4974012;28;20220;-86
2022/10/01 02:00:21;;;;;;;10.68;9.57;;;10.40;99.90;;;;;;4971686;28;20703;-85
2022/10/01 02:02:53;;;;;;;10.13;9.05;;;10.30;99.90;;;;;;4980300;28;20205;-86
2022/10/01 02:05:29;;;;;;;9.98;8.98;;;10.20;99.90;;;;;;5033571;28;20701;-86
2022/10/01 02:08:31;;;;;;;9.52;8.50;;;10.20;99.90;;;;;;5033880;28;20676;-85
2022/10/01 02:11:18;;;;;;;11.27;9.65;;;10.20;99.90;;;;;;5034590;28;20305;-86
2022/10/01 02:13:58;;;;;;;10.95;9.20;;;10.10;99.90;;;;;;5033449;28;20676;-85
2022/10/01 02:16:34;;;;;;;10.73;9.63;;;10.10;99.90;;;;;;5032293;28;20206;-85
2022/10/01 02:19:05;;;;;;;11.02;9.68;;;10.00;99.90;;;;;;5036179;28;21836;-85
2022/10/01 02:21:40;;;;;;;11.07;9.88;;;9.90;99.90;;;;;;5035121;28;20214;-86
2022/10/01 02:24:14;;;;;;;10.48;9.38;;;9.80;99.90;;;;;;5034560;28;20210;-85
2022/10/01 02:26:51;;;;;;;11.02;9.60;;;9.80;99.90;;;;;;5035967;28;20294;-85
2022/10/01 02:29:21;;;;;;;13.80;9.73;;;9.70;99.90;;;;;;5032992;28;20195;-85
2022/10/01 02:31:56;;;;;;;11.55;9.63;;;9.60;99.90;;;;;;5036926;28;20300;-85
2022/10/01 02:34:29;;;;;;;10.60;9.48;;;9.60;99.90;;;;;;5034157;28;20286;-85
2022/10/01 02:36:58;;;;;;;11.48;9.57;;;9.60;99.90;;;;;;5037271;28;20349;-85
2022/10/01 02:39:29;;;;;;;12.35;9.55;;;9.60;99.90;;;;;;5035097;28;20217;-85
2022/10/01 02:41:58;;;;;;;12.15;9.57;;;9.50;99.90;;;;;;5032419;28;20951;-85
2022/10/01 02:44:30;;;;;;;12.90;10.10;;;9.50;99.90;;;;;;5035966;28;20285;-85
2022/10/01 02:47:06;;;;;;;10.93;9.02;;;9.50;99.90;;;;;;5039724;28;20225;-85
2022/10/01 02:49:34;;;;;;;10.18;8.90;;;9.50;99.90;;;;;;5038770;28;20288;-86
2022/10/01 02:52:08;;;;;;;10.32;8.95;;;9.50;99.90;;;;;;5038557;28;20226;-86
2022/10/01 02:54:38;;;;;;;10.13;9.02;;;9.50;99.90;;;;;;5037721;28;20545;-85
2022/10/01 02:57:22;;;;;;;10.32;9.00;;;9.40;99.90;;;;;;5036180;28;20205;-85
2022/10/01 02:59:49;;;;;;;10.55;9.40;;;9.40;99.90;;;;;;5034032;28;20209;-86
2022/10/01 03:02:18;;;;;;;10.30;9.18;;;9.30;99.90;;;;;;5036041;28;20199;-86
2022/10/01 03:04:46;;;;;;;9.60;8.60;;;9.20;99.90;;;;;;5035127;28;20226;-86
2022/10/01 03:07:13;;;;;;;9.80;8.60;;;9.20;99.90;;;;;;5036130;28;20194;-86
2022/10/01 03:09:40;;;;;;;10.35;9.18;;;9.10;99.90;;;;;;5034187;28;20262;-86
2022/10/01 03:12:09;;;;;;;10.00;8.57;;;9.00;99.90;;;;;;5034403;28;20555;-85
2022/10/01 03:14:38;;;;;;;10.05;9.02;;;9.00;99.90;;;;;;5033284;28;20214;-86
2022/10/01 03:17:05;;;;;;;12.05;8.90;;;9.00;99.90;;;;;;5034927;28;20285;-86
2022/10/01 03:19:33;;;;;;;10.43;9.02;;;8.90;99.90;;;;;;5035206;28;20210;-86
2022/10/01 03:22:00;;;;;;;9.27;8.13;;;8.90;99.90;;;;;;5035687;28;20205;-86
2022/10/01 03:24:27;;;;;;;8.90;8.00;;;8.90;99.90;;;;;;5035629;28;20654;-86
2022/10/01 03:26:56;;;;;;;9.85;8.65;;;8.90;99.90;;;;;;5033198;28;20258;-86
2022/10/01 03:29:23;;;;;;;9.55;8.52;;;9.00;99.90;;;;;;5034594;28;20202;-86
2022/10/01 03:31:50;;;;;;;10.40;8.40;;;8.90;99.90;;;;;;5034721;28;20215;-86
2022/10/01 03:34:19;;;;;;;9.55;8.15;;;8.90;99.90;;;;;;5035565;28;20293;-86
2022/10/01 03:36:47;;;;;;;8.63;7.75;;;8.80;99.90;;;;;;5035294;28;20199;-86
2022/10/01 03:39:15;;;;;;;8.98;8.07;;;8.80;99.90;;;;;;5034584;28;20203;-86
2022/10/01 03:41:41;;;;;;;9.75;7.75;;;8.80;99.90;;;;;;5030283;28;20196;-86
2022/10/01 03:44:08;;;;;;;8.98;7.95;;;8.90;99.90;;;;;;5032270;28;20293;-85
2022/10/01 03:46:35;;;;;;;8.95;8.05;;;8.80;99.90;;;;;;5040961;28;20222;-85
2022/10/01 03:49:02;;;;;;;8.77;7.75;;;8.80;99.90;;;;;;5038773;28;20557;-86
2022/10/01 03:51:30;;;;;;;9.50;7.38;;;8.80;99.90;;;;;;5035120;28;20222;-86
2022/10/01 03:53:59;;;;;;;8.60;7.70;;;8.90;99.90;;;;;;5033372;28;20203;-85
2022/10/01 03:56:26;;;;;;;8.52;7.30;;;9.10;99.90;;;;;;5033618;28;20206;-86
2022/10/01 03:58:53;;;;;;;10.13;7.47;;;9.00;99.90;;;;;;5034372;28;20457;-86
2022/10/01 04:01:20;;;;;;;8.50;7.47;;;9.00;99.90;;;;;;5034220;28;20207;-86
2022/10/01 04:03:48;;;;;;;8.20;7.40;;;9.00;99.90;;;;;;5034781;28;20206;-86
2022/10/01 04:06:15;;;;;;;10.50;8.30;;;9.00;99.90;;;;;;5012714;28;20223;-86
2022/10/01 04:08:43;;;;;;;8.70;7.75;;;8.90;99.90;;;;;;5034266;28;20214;-86
2022/10/01 04:11:11;;;;;;;8.77;7.88;;;8.80;99.90;;;;;;5029873;28;20195;-86
2022/10/01 04:13:38;;;;;;;9.88;8.20;;;8.70;99.90;;;;;;5029795;28;20216;-86
2022/10/01 04:16:07;;;;;;;10.48;8.38;;;8.60;99.90;;;;;;5034794;28;20210;-86
2022/10/01 04:18:34;;;;;;;10.13;8.63;;;8.50;99.90;;;;;;5034994;28;20199;-86
2022/10/01 04:21:01;;;;;;;10.13;8.02;;;8.50;99.90;;;;;;5034635;28;20206;-86
2022/10/01 04:23:28;;;;;;;8.98;8.07;;;8.50;99.90;;;;;;5033934;28;20198;-86
2022/10/01 04:25:59;;;;;;;9.30;8.38;;;8.50;99.90;;;;;;5017612;28;20202;-86
2022/10/01 04:28:27;;;;;;;9.20;8.20;;;8.60;99.90;;;;;;5030024;28;20210;-86
2022/10/01 04:31:23;;;;;;;9.75;8.48;;;8.60;99.90;;;;;;5034623;28;20204;-86
2022/10/01 04:33:57;;;;;;;8.65;7.75;;;8.50;99.90;;;;;;5034643;28;20203;-86
2022/10/01 04:36:31;;;;;;;9.05;7.70;;;8.40;99.90;;;;;;5027974;28;20205;-86
2022/10/01 04:39:01;;;;;;;12.27;8.25;;;8.40;99.90;;;;;;5035683;28;20206;-86
2022/10/01 04:41:31;;;;;;;12.38;8.00;;;8.40;99.90;;;;;;5031312;28;20282;-86
2022/10/01 04:44:09;;;;;;;8.98;8.07;;;8.40;99.90;;;;;;5035686;28;20201;-85
2022/10/01 04:46:37;;;;;;;9.82;8.27;;;8.40;99.90;;;;;;5034492;28;20199;-86
2022/10/01 04:49:04;;;;;;;8.85;7.95;;;8.30;99.90;;;;;;5034708;28;20206;-86
2022/10/01 04:51:31;;;;;;;11.05;8.23;;;8.30;99.90;;;;;;5035677;28;20227;-86
2022/10/01 04:54:07;;;;;;;9.27;8.30;;;8.30;99.90;;;;;;5030738;28;20198;-86
2022/10/01 04:56:43;;;;;;;9.70;7.82;;;8.20;99.90;;;;;;5032519;28;20669;-86
2022/10/01 04:59:26;;;;;;;8.63;7.20;;;8.20;99.90;;;;;;5034682;28;20198;-86
2022/10/01 05:02:07;;;;;;;9.57;7.95;;;8.30;99.90;;;;;;5035100;28;20729;-86
2022/10/01 05:04:37;;;;;;;7.65;6.85;;;8.30;99.90;;;;;;5027841;28;20706;-86
2022/10/01 05:07:19;;;;;;;8.20;7.40;;;8.40;99.90;;;;;;5027994;28;20619;-86
2022/10/01 05:09:49;;;;;;;7.53;6.72;;;8.40;99.90;;;;;;5032050;28;20198;-86
2022/10/01 05:12:25;;;;;;;7.53;6.57;;;8.60;99.90;;;;;;5032824;28;20592;-86
2022/10/01 05:15:20;;;;;;;8.25;6.88;;;8.60;99.90;;;;;;5033580;28;20194;-86
2022/10/01 05:17:49;;;;;;;6.95;6.25;;;8.60;99.90;;;;;;5021598;28;20203;-86
2022/10/01 05:20:22;;;;;;;8.82;7.20;;;8.60;99.90;;;;;;5030820;28;20265;-86
2022/10/01 05:23:12;;;;;;;7.13;6.43;;;8.60;99.90;;;;;;5035222;28;20201;-86
2022/10/01 05:25:45;;;;;;;8.25;6.20;;;8.70;99.90;;;;;;5030801;28;20293;-86
2022/10/01 05:28:19;;;;;;;7.45;6.22;;;8.90;99.90;;;;;;5032039;28;20565;-86
2022/10/01 05:31:08;;;;;;;7.15;5.93;;;8.90;99.90;;;;;;5034082;28;20256;-86
2022/10/01 05:33:37;;;;;;;8.13;6.13;;;8.90;99.90;;;;;;5031068;28;20237;-85
2022/10/01 05:36:06;;;;;;;8.15;7.10;;;9.00;99.90;;;;;;5033318;28;20281;-86
2022/10/01 05:38:35;;;;;;;6.57;5.95;;;8.90;99.90;;;;;;5035717;28;20195;-86
2022/10/01 05:41:07;;;;;;;7.32;6.18;;;8.80;99.90;;;;;;5033355;28;20194;-86
2022/10/01 05:43:50;;;;;;;6.97;6.28;;;8.80;99.90;;;;;;5038375;28;20269;-85
2022/10/01 05:46:20;;;;;;;11.98;6.40;;;8.70;99.90;;;;;;5039182;28;20206;-85
2022/10/01 05:49:01;;;;;;;8.20;6.18;;;8.70;99.90;;;;;;5035039;28;20213;-86
2022/10/01 05:51:28;;;;;;;6.55;5.95;;;8.70;99.90;;;;;;5034209;28;20186;-86
2022/10/01 05:54:01;;;;;;;6.72;6.10;;;8.70;99.90;;;;;;5032828;28;20210;-86
2022/10/01 05:56:31;;;;;;;6.35;5.75;;;8.90;99.90;;;;;;5034534;28;20838;-86
2022/10/01 05:59:01;;;;;;;6.88;6.25;;;9.00;99.90;;;;;;5033754;28;20290;-86
2022/10/01 06:01:45;;;;;;;8.00;5.82;;;9.10;99.90;;;;;;5034304;28;20683;-85
2022/10/01 06:04:12;;;;;;;6.78;6.07;;;9.20;99.90;;;;;;5035118;28;20195;-86
2022/10/01 06:06:49;;;;;;;7.15;6.15;;;9.30;99.90;;;;;;5037242;28;20203;-85
2022/10/01 06:09:16;;;;;;;6.50;5.72;;;9.40;99.90;;;;;;5036250;28;20199;-86
2022/10/01 06:11:55;;;;;;;6.63;5.90;;;9.50;99.90;;;;;;5037726;28;20689;-85
2022/10/01 06:14:31;;;;;;;7.47;6.07;;;9.70;99.90;;;;;;5036208;28;20282;-86
2022/10/01 06:17:20;;;;;;;6.40;5.35;;;9.80;99.90;;;;;;5030280;28;20612;-86
2022/10/01 06:19:47;;;;;;;6.93;6.05;;;10.00;99.90;;;;;;5028469;28;20206;-86
2022/10/01 06:23:08;;;;;;;8.43;5.72;;;10.10;99.50;;;;;;5034606;28;20194;-85
2022/10/01 06:25:43;;;;;;;7.22;5.65;;;10.20;99.40;;;;;;5029285;28;20275;-86
2022/10/01 06:28:14;;;;;;;6.28;5.70;;;10.30;99.40;;;;;;5036892;28;20273;-85
2022/10/01 06:30:43;;;;;;;5.78;5.18;;;10.30;99.00;;;;;;5035092;28;20572;-85
2022/10/01 06:33:20;;;;;;;5.43;4.85;;;10.40;99.10;;;;;;5042005;28;20207;-86
2022/10/01 06:35:55;;;;;;;5.45;4.95;;;10.40;99.00;;;;;;5029749;28;20223;-85
2022/10/01 06:38:25;;;;;;;5.47;4.95;;;10.50;98.80;;;;;;5040546;28;20297;-86
2022/10/01 06:40:56;;;;;;;5.47;4.95;;;10.60;98.70;;;;;;5042885;28;20203;-85
2022/10/01 06:43:32;;;;;;;5.30;4.80;;;10.70;98.50;;;;;;5042484;28;20301;-85
2022/10/01 06:46:02;;;;;;;5.43;4.68;;;10.80;97.70;;;;;;5042728;28;20645;-86
2022/10/01 06:48:35;;;;;;;6.20;4.45;;;10.70;97.80;;;;;;5043279;28;20195;-85
2022/10/01 06:51:02;;;;;;;5.30;4.80;;;10.80;98.00;;;;;;5042516;28;20237;-86
2022/10/01 06:53:28;;;;;;;4.72;4.32;;;10.90;97.90;;;;;;5043142;28;20276;-85
2022/10/01 06:56:08;;;;;;;5.57;4.55;;;11.00;97.40;;;;;;5041387;28;20705;-86
2022/10/01 06:58:43;;;;;;;4.57;4.18;;;11.10;96.70;;;;;;5042404;28;20239;-85
2022/10/01 07:01:42;;;;;;;4.88;4.30;;;11.10;96.20;;;;;;5045711;28;20229;-85
2022/10/01 07:04:11;;;;;;;5.32;4.32;;;11.30;96.40;;;;;;5042842;28;20266;-85
2022/10/01 07:06:43;;;;;;;6.05;4.30;;;11.30;96.00;;;;;;5046435;28;20275;-85
2022/10/01 07:09:54;;;;;;;4.85;4.35;;;11.40;96.00;;;;;;5046325;28;20282;-86
2022/10/01 07:12:25;;;;;;;6.93;4.63;;;11.40;96.00;;;;;;5045043;28;20210;-85
2022/10/01 07:14:53;;;;;;;4.50;4.00;;;11.30;96.00;;;;;;5046659;28;20221;-85
2022/10/01 07:17:44;;;;;;;4.80;4.30;;;11.50;96.10;;;;;;5045968;28;20654;-85
2022/10/01 07:20:16;;;;;;;4.82;4.32;;;11.60;96.10;;;;;;5045640;28;20230;-85
2022/10/01 07:22:50;;;;;;;4.68;4.10;;;11.50;96.10;;;;;;5038093;28;20230;-86
2022/10/01 07:25:18;;;;;;;5.22;4.10;;;11.70;96.10;;;;;;5043574;28;20258;-85
2022/10/01 07:27:49;;;;;;;5.30;4.32;;;11.90;95.00;;;;;;5044429;28;20213;-85
2022/10/01 07:30:16;;;;;;;3.72;3.42;;;11.90;94.40;;;;;;5042594;28;20270;-85
2022/10/01 07:32:49;;;;;;;4.72;3.50;;;11.90;94.70;;;;;;5046168;28;20234;-86
2022/10/01 07:35:19;;;;;;;4.43;3.90;;;12.00;94.10;;;;;;5045703;28;20226;-85
2022/10/01 07:37:55;;;;;;;4.38;3.20;;;11.90;94.30;;;;;;5045930;28;20592;-85
2022/10/01 07:40:31;;;;;;;3.80;3.40;;;11.90;94.50;;;;;;5039291;28;20262;-85
2022/10/01 07:42:58;;;;;;;3.80;3.50;;;11.80;94.40;;;;;;5042473;28;20234;-85
2022/10/01 07:45:33;;;;;;;3.67;3.38;;;11.60;94.70;;;;;;5039555;28;20234;-85
2022/10/01 07:48:02;;;;;;;3.60;2.90;;;11.70;95.10;;;;;;5044667;28;20194;-85
2022/10/01 07:50:30;;;;;;;5.53;3.13;;;11.70;95.40;;;;;;5034707;28;20225;-85
2022/10/01 07:52:59;;;;;;;4.80;2.90;;;11.80;94.80;;;;;;5036570;28;20566;-85
2022/10/01 07:55:29;;;;;;;3.78;3.03;;;12.00;94.80;;;;;;5042323;28;20294;-85
2022/10/01 07:58:01;;;;;;;2.95;2.75;;;12.10;95.10;;;;;;5041136;28;20206;-85
2022/10/01 08:00:33;;;;;;;5.72;2.83;;;12.20;94.90;;;;;;5041440;28;20322;-85
2022/10/01 08:03:25;;;;;;;3.60;3.30;;;12.30;94.70;;;;;;5034345;28;20266;-86
2022/10/01 08:05:56;;;;;;;2.90;2.70;;;12.40;94.80;;;;;;5040172;28;20218;-85
2022/10/01 08:08:24;;;;;;;3.58;2.33;;;12.50;92.10;;;;;;5039151;28;20230;-85
2022/10/01 08:10:51;;;;;;;2.47;2.25;;;12.60;91.50;;;;;;5038984;28;20286;-85
2022/10/01 08:13:37;;;;;;;2.35;2.15;;;12.60;91.40;;;;;;5039446;28;20225;-85
2022/10/01 08:16:05;;;;;;;2.22;2.00;;;12.60;90.90;;;;;;5036276;28;20229;-85
2022/10/01 08:18:39;;;;;;;2.65;2.15;;;12.70;90.90;;;;;;5036253;28;20558;-86
2022/10/01 08:21:09;;;;;;;2.10;1.90;;;12.70;90.90;;;;;;5038107;28;20552;-86
2022/10/01 08:23:36;;;;;;;3.25;1.92;;;12.90;91.00;;;;;;5038023;28;20202;-86
2022/10/01 08:26:07;;;;;;;2.42;1.92;;;12.90;91.00;;;;;;5037347;28;20293;-85
2022/10/01 08:28:43;;;;;;;1.70;1.60;;;13.00;90.60;;;;;;5037113;28;20199;-87
2022/10/01 08:31:25;;;;;;;1.60;1.50;;;13.10;90.50;;;;;;5036914;28;20203;-86
2022/10/01 08:33:56;;;;;;;2.60;1.88;;;13.10;85.30;;;;;;5030949;28;20210;-87
2022/10/01 08:36:26;;;;;;;2.70;1.80;;;13.10;88.60;;;;;;5035258;28;20199;-86
2022/10/01 08:38:55;;;;;;;2.38;1.60;;;13.20;84.80;;;;;;5035329;28;20213;-87
2022/10/01 08:41:39;;;;;;;1.50;1.40;;;13.30;84.50;;;;;;5034652;28;20201;-87
2022/10/01 08:44:26;;;;;;;1.60;1.50;;;13.30;88.30;;;;;;5036055;28;20293;-86
2022/10/01 08:47:00;;;;;;;2.33;1.63;;;13.30;84.80;;;;;;5024366;28;20300;-86
2022/10/01 08:49:37;;;;;;;4.05;2.00;;;13.30;83.30;;;;;;5034087;28;20229;-86
2022/10/01 08:52:20;;;;;;;1.58;1.48;;;13.20;82.00;;;;;;5036044;28;20202;-87
2022/10/01 08:54:55;;;;;;;1.60;1.40;;;13.20;83.50;;;;;;5030311;28;20716;-86
2022/10/01 08:57:28;;;;;;;1.95;1.80;;;13.20;83.80;;;;;;5031476;28;20202;-86
2022/10/01 09:00:19;;;;;;;1.60;1.50;;;13.30;83.30;;;;;;5035208;28;20282;-86
2022/10/01 09:02:47;;;;;;;2.75;1.40;;;13.40;83.90;;;;;;5035015;28;20229;-87
2022/10/01 09:05:22;;;;;;;1.85;1.50;;;13.40;84.80;;;;;;5034573;28;20229;-86
2022/10/01 09:08:15;;;;;;;1.75;1.65;;;13.50;84.90;;;;;;5033805;28;20201;-86
2022/10/01 09:10:59;;;;;;;1.83;1.73;;;13.40;84.40;;;;;;5036490;28;20654;-86
2022/10/01 09:13:56;;;;;;;1.90;1.70;;;13.40;86.10;;;;;;5027092;28;20218;-86
2022/10/01 09:16:30;;;;;;;2.40;1.80;;;13.60;82.50;;;;;;5029371;28;20605;-86
2022/10/01 09:19:13;;;;;;;1.80;1.70;;;13.60;79.30;;;;;;5037303;28;20629;-87
2022/10/01 09:21:57;;;;;;;2.30;2.05;;;13.50;80.70;;;;;;5035419;28;20273;-86
2022/10/01 09:24:42;;;;;;;24.65;19.90;;;13.60;80.60;;;;;;5033685;28;20289;-86
2022/10/01 09:27:24;;;;;;;1.65;1.23;;;13.60;81.30;;;;;;5027230;28;20209;-86
2022/10/01 09:30:00;;;;;;;2.33;1.50;;;13.70;76.40;;;;;;5036404;28;20202;-86
2022/10/01 09:32:41;;;;;;;1.63;1.50;;;13.80;78.90;;;;;;5036445;28;20199;-86
2022/10/01 09:35:35;;;;;;;7.03;5.80;;;13.70;81.30;;;;;;5035158;28;20205;-86
2022/10/01 09:38:06;;;;;;;1.63;1.45;;;13.80;79.70;;;;;;5035036;28;20677;-86
2022/10/01 09:40:52;;;;;;;2.65;2.40;;;14.00;77.80;;;;;;5041757;28;20203;-86
2022/10/01 09:43:21;;;;;;;1.42;1.33;;;14.20;76.70;;;;;;5039665;28;20194;-86
2022/10/01 09:46:15;;;;;;;2.13;1.92;;;14.10;71.50;;;;;;5037633;28;20190;-86
2022/10/01 09:48:48;;;;;;;1.50;1.40;;;14.00;76.60;;;;;;5035269;28;20235;-85
2022/10/01 09:51:19;;;;;;;2.13;1.30;;;13.90;77.50;;;;;;5033317;28;20227;-86
2022/10/01 09:54:00;;;;;;;1.50;1.40;;;13.70;77.50;;;;;;5038919;28;20258;-85
2022/10/01 09:56:33;;;;;;;2.88;1.52;;;13.60;78.50;;;;;;5041981;28;20216;-86
2022/10/01 09:59:13;;;;;;;1.70;1.45;;;13.60;80.40;;;;;;5030910;28;20274;-86
2022/10/01 10:01:57;;;;;;;1.52;1.42;;;13.60;80.10;;;;;;5030302;28;20202;-85
2022/10/01 10:04:58;;;;;;;1.80;1.70;;;13.60;79.40;;;;;;5039942;28;20277;-86
2022/10/01 10:07:33;;;;;;;1.60;1.50;;;13.60;80.40;;;;;;5034328;28;20265;-85
2022/10/01 10:10:10;;;;;;;2.35;1.50;;;13.60;82.60;;;;;;5038142;28;20191;-86
2022/10/01 10:12:45;;;;;;;1.70;1.60;;;13.60;85.40;;;;;;5041457;28;20301;-86
2022/10/01 10:15:26;;;;;;;2.17;1.33;;;13.60;86.20;;;;;;5036839;28;20631;-86
2022/10/01 10:17:54;;;;;;;1.98;1.73;;;13.60;85.10;;;;;;5033312;28;20692;-86
2022/10/01 10:20:28;;;;;;;2.80;1.33;;;13.70;85.90;;;;;;5037513;28;20624;-86
2022/10/01 10:23:31;;;;;;;1.25;1.15;;;13.60;86.20;;;;;;5032879;28;20193;-87
2022/10/01 10:25:59;;;;;;;1.48;1.38;;;13.50;89.40;;;;;;5037434;28;20225;-86
2022/10/01 10:28:44;;;;;;;1.90;1.70;;;13.30;91.10;;;;;;5037968;28;20673;-87
2022/10/01 10:31:16;;;;;;;2.20;1.55;;;13.10;91.60;;;;;;5034815;28;20650;-86
2022/10/01 10:33:53;;;;;;;1.70;1.60;;;13.00;92.30;;;;;;5037691;28;20224;-86
2022/10/01 10:36:22;;;;;;;2.58;1.65;;;12.90;92.90;;;;;;5033281;28;20248;-86
2022/10/01 10:38:57;;;;;;;1.80;1.70;;;12.90;93.30;;;;;;5031021;28;20629;-86
2022/10/01 10:41:26;;;;;;;1.95;1.70;;;12.90;93.60;;;;;;5037918;28;20202;-86
2022/10/01 10:43:58;;;;;;;1.85;1.73;;;12.80;94.60;;;;;;5039412;28;20194;-86
2022/10/01 10:46:30;;;;;;;3.67;1.80;;;12.60;95.20;;;;;;5036931;28;20198;-87
2022/10/01 10:49:22;;;;;;;1.83;1.67;;;12.60;95.60;;;;;;5038382;28;20195;-86
2022/10/01 10:51:52;;;;;;;1.92;1.83;;;12.50;96.30;;;;;;5031209;28;20216;-86
2022/10/01 10:54:23;;;;;;;4.22;1.83;;;12.50;96.30;;;;;;5039858;28;20245;-86
2022/10/01 10:56:56;;;;;;;2.13;1.55;;;12.30;97.10;;;;;;5034359;28;20555;-86
2022/10/01 10:59:27;;;;;;;1.77;1.58;;;12.30;97.30;;;;;;5034473;28;20194;-86
2022/10/01 11:01:55;;;;;;;2.03;1.90;;;12.30;96.90;;;;;;5035033;28;20281;-85
2022/10/01 11:04:38;;;;;;;2.72;2.00;;;12.30;96.30;;;;;;5034019;28;20199;-85
2022/10/01 11:07:08;;;;;;;3.63;2.00;;;12.30;97.10;;;;;;5044804;28;20207;-85
2022/10/01 11:09:47;;;;;;;1.90;1.80;;;12.20;97.70;;;;;;5039122;28;20209;-85
2022/10/01 11:12:28;;;;;;;3.90;1.75;;;12.20;98.00;;;;;;5045258;28;21075;-85
2022/10/01 11:15:09;;;;;;;2.22;2.03;;;12.30;98.20;;;;;;5040608;28;20226;-86
2022/10/01 11:18:08;;;;;;;2.00;1.80;;;12.30;97.60;;;;;;5037594;28;20252;-85
2022/10/01 11:20:53;;;;;;;2.67;2.28;;;12.20;98.20;;;;;;5037875;28;20202;-85
2022/10/01 11:23:43;;;;;;;2.15;1.95;;;12.10;98.40;;;;;;5045845;28;20256;-86
2022/10/01 11:26:23;;;;;;;4.05;2.53;;;12.00;99.00;;;;;;5040087;28;20267;-86
2022/10/01 11:29:02;;;;;;;3.78;2.10;;;12.00;99.90;;;;;;5034955;28;20661;-86
2022/10/01 11:31:39;;;;;;;2.88;2.55;;;12.00;99.70;;;;;;5042951;28;20207;-85
2022/10/01 11:34:39;;;;;;;2.80;2.03;;;11.90;99.00;;;;;;5043033;28;20305;-86
2022/10/01 11:37:30;;;;;;;2.42;1.92;;;11.80;99.20;;;;;;5046519;28;20195;-86
2022/10/01 11:40:03;;;;;;;2.33;1.98;;;11.80;99.20;;;;;;5019379;28;20270;-86
2022/10/01 11:42:36;;;;;;;12.43;10.25;;;11.80;99.00;;;;;;5047124;28;20249;-86
2022/10/01 11:45:20;;;;;;;2.88;2.58;;;11.80;99.50;;;;;;5046727;28;20209;-86
2022/10/01 11:47:56;;;;;;;4.28;3.33;;;11.70;99.80;;;;;;5046332;28;20280;-86
2022/10/01 11:50:27;;;;;;;2.15;1.70;;;11.70;99.00;;;;;;5046508;28;20266;-85
2022/10/01 11:53:00;;;;;;;2.65;1.60;;;11.70;99.20;;;;;;5032483;28;20226;-86
2022/10/01 11:58:51;;;;;;;2.47;1.90;;;11.50;99.90;;;;;;5034167;28;20221;-85
2022/10/01 12:01:28;;;;;;;2.20;1.50;;;11.50;99.90;;;;;;5042401;28;20199;-86
2022/10/01 12:04:20;;;;;;;4.53;3.13;;;11.40;99.90;;;;;;5043777;28;20276;-86
2022/10/01 12:07:02;;;;;;;1.92;1.60;;;11.50;99.90;;;;;;5041310;28;20194;-85
2022/10/01 12:09:41;;;;;;;3.15;1.70;;;11.40;99.90;;;;;;5041184;28;20254;-85
2022/10/01 12:12:40;;;;;;;2.00;1.70;;;11.30;99.90;;;;;;5041692;28;20195;-85
2022/10/01 12:15:15;;;;;;;2.70;1.60;;;11.30;99.90;;;;;;5041762;28;20784;-85
2022/10/01 12:17:48;;;;;;;2.00;1.80;;;11.40;99.90;;;;;;5042813;28;20261;-86
2022/10/01 12:20:23;;;;;;;3.47;1.80;;;11.40;99.90;;;;;;5043234;28;20205;-86
2022/10/01 12:23:05;;;;;;;2.70;1.98;;;11.40;99.90;;;;;;5041584;28;20198;-86
2022/10/01 12:25:42;;;;;;;3.38;1.95;;;11.40;99.90;;;;;;5031033;28;20206;-86
2022/10/01 12:28:13;;;;;;;3.08;1.80;;;11.30;99.90;;;;;;5040683;28;20204;-86
2022/10/01 12:31:13;;;;;;;1.92;1.73;;;11.30;99.90;;;;;;5032168;28;20221;-86
2022/10/01 12:34:05;;;;;;;2.30;1.83;;;11.30;99.90;;;;;;5040537;28;20273;-86
2022/10/01 12:36:57;;;;;;;2.08;1.60;;;11.40;99.90;;;;;;5040371;28;20222;-86
2022/10/01 12:39:54;;;;;;;55.10;32.72;;;11.50;99.90;;;;;;5038150;28;20202;-86
2022/10/01 12:42:39;;;;;;;3.05;2.25;;;11.50;99.90;;;;;;5041004;28;20203;-86
2022/10/01 12:45:25;;;;;;;2.63;2.10;;;11.40;99.90;;;;;;5036601;28;20572;-86
2022/10/01 12:47:57;;;;;;;3.90;3.25;;;11.40;99.90;;;;;;5041422;28;20229;-85
2022/10/01 12:50:41;;;;;;;4.32;3.25;;;11.40;99.90;;;;;;5042125;28;20207;-86
2022/10/01 12:53:31;;;;;;;2.72;1.65;;;11.40;99.90;;;;;;5041395;28;20281;-86
2022/10/01 12:56:15;;;;;;;2.63;1.83;;;11.40;99.90;;;;;;5041044;28;20765;-85
2022/10/01 12:59:09;;;;;;;2.58;1.80;;;11.40;99.90;;;;;;5040965;28;20676;-86
2022/10/01 13:02:01;;;;;;;2.88;2.42;;;11.30;99.90;;;;;;5041972;28;20545;-86
2022/10/01 13:04:50;;;;;;;3.03;2.63;;;11.40;99.90;;;;;;5042338;28;20336;-86
2022/10/01 13:07:48;;;;;;;2.15;1.90;;;11.40;99.90;;;;;;5042086;28;20195;-87
2022/10/01 13:10:47;;;;;;;5.80;4.55;;;11.40;99.90;;;;;;5031864;28;20285;-86
2022/10/01 13:13:37;;;;;;;2.75;2.10;;;11.60;99.90;;;;;;5037412;28;20279;-86
2022/10/01 13:16:11;;;;;;;2.40;1.88;;;11.50;99.90;;;;;;5040708;28;20207;-86
2022/10/01 13:18:56;;;;;;;5.40;4.18;;;11.60;99.90;;;;;;5042056;28;20265;-86
2022/10/01 13:21:51;;;;;;;2.42;2.00;;;11.60;99.90;;;;;;5035536;28;20202;-86
2022/10/01 13:24:28;;;;;;;2.13;1.58;;;11.60;99.90;;;;;;5034723;28;20207;-86
2022/10/01 13:27:02;;;;;;;1.95;1.65;;;11.60;99.90;;;;;;5035615;28;20233;-86
2022/10/01 13:29:50;;;;;;;1.50;1.40;;;11.50;99.90;;;;;;5035368;28;20194;-85
2022/10/01 13:32:57;;;;;;;2.13;1.58;;;11.50;99.90;;;;;;5038971;28;20282;-85
2022/10/01 13:35:39;;;;;;;6.15;4.80;;;11.60;99.90;;;;;;5037800;28;20230;-86